sensor_id;sensor_type;location;lat;lon;timestamp;P1;durP1;ratioP1;P2;durP2;ratioP2
249;SDS011;109;19.806;-70.704;2022-11-21T00:01:10;20.23;;;5.27;;
249;SDS011;109;19.806;-70.704;2022-11-21T00:03:44;12.20;;;4.53;;
249;SDS011;109;19.806;-70.704;2022-11-21T00:06:10;19.27;;;5.30;;
249;SDS011;109;19.806;-70.704;2022-11-21T00:08:37;14.27;;;5.00;;
249;SDS011;109;19.806;-70.704;2022-11-21T00:11:03;19.03;;;5.80;;
249;SDS011;109;19.806;-70.704;2022-11-21T00:13:30;21.87;;;5.00;;
249;SDS011;109;19.806;-70.704;2022-11-21T00:16:01;21.77;;;4.77;;
249;SDS011;109;19.806;-70.704;2022-11-21T00:18:32;18.40;;;4.37;;
249;SDS011;109;19.806;-70.704;2022-11-21T00:21:02;17.17;;;6.20;;
249;SDS011;109;19.806;-70.704;2022-11-21T00:23:33;16.37;;;4.60;;
249;SDS011;109;19.806;-70.704;2022-11-21T00:26:02;19.47;;;4.93;;
249;SDS011;109;19.806;-70.704;2022-11-21T00:28:30;17.40;;;5.67;;
249;SDS011;109;19.806;-70.704;2022-11-21T00:30:56;20.67;;;6.20;;
249;SDS011;109;19.806;-70.704;2022-11-21T00:33:22;19.13;;;5.80;;
249;SDS011;109;19.806;-70.704;2022-11-21T00:35:49;18.60;;;5.43;;
249;SDS011;109;19.806;-70.704;2022-11-21T00:38:22;23.20;;;5.67;;
249;SDS011;109;19.806;-70.704;2022-11-21T00:40:51;12.80;;;5.00;;
249;SDS011;109;19.806;-70.704;2022-11-21T00:43:24;25.17;;;5.27;;
249;SDS011;109;19.806;-70.704;2022-11-21T00:45:50;15.30;;;5.27;;
249;SDS011;109;19.806;-70.704;2022-11-21T00:48:31;20.17;;;4.37;;
249;SDS011;109;19.806;-70.704;2022-11-21T00:51:10;13.10;;;4.03;;
249;SDS011;109;19.806;-70.704;2022-11-21T00:53:44;10.27;;;3.80;;
249;SDS011;109;19.806;-70.704;2022-11-21T00:56:10;14.03;;;4.30;;
249;SDS011;109;19.806;-70.704;2022-11-21T00:58:43;11.37;;;3.70;;
249;SDS011;109;19.806;-70.704;2022-11-21T01:01:11;17.87;;;4.37;;
249;SDS011;109;19.806;-70.704;2022-11-21T01:03:45;14.90;;;4.50;;
249;SDS011;109;19.806;-70.704;2022-11-21T01:06:12;16.70;;;3.93;;
249;SDS011;109;19.806;-70.704;2022-11-21T01:08:46;21.00;;;4.50;;
249;SDS011;109;19.806;-70.704;2022-11-21T01:11:16;12.40;;;4.30;;
249;SDS011;109;19.806;-70.704;2022-11-21T01:13:51;22.87;;;4.10;;
249;SDS011;109;19.806;-70.704;2022-11-21T01:16:20;12.00;;;3.93;;
249;SDS011;109;19.806;-70.704;2022-11-21T01:18:55;23.50;;;4.70;;
249;SDS011;109;19.806;-70.704;2022-11-21T01:21:26;21.63;;;4.27;;
249;SDS011;109;19.806;-70.704;2022-11-21T01:24:01;16.70;;;4.47;;
249;SDS011;109;19.806;-70.704;2022-11-21T01:26:29;20.83;;;4.53;;
249;SDS011;109;19.806;-70.704;2022-11-21T01:29:04;17.53;;;4.47;;
249;SDS011;109;19.806;-70.704;2022-11-21T01:31:31;9.37;;;3.40;;
249;SDS011;109;19.806;-70.704;2022-11-21T01:34:05;18.97;;;4.63;;
249;SDS011;109;19.806;-70.704;2022-11-21T01:36:32;23.63;;;4.07;;
249;SDS011;109;19.806;-70.704;2022-11-21T01:39:05;15.37;;;4.03;;
249;SDS011;109;19.806;-70.704;2022-11-21T01:41:34;24.20;;;4.93;;
249;SDS011;109;19.806;-70.704;2022-11-21T01:44:19;12.20;;;3.60;;
249;SDS011;109;19.806;-70.704;2022-11-21T01:46:54;15.43;;;4.20;;
249;SDS011;109;19.806;-70.704;2022-11-21T01:49:42;18.40;;;4.70;;
249;SDS011;109;19.806;-70.704;2022-11-21T01:52:25;22.10;;;4.27;;
249;SDS011;109;19.806;-70.704;2022-11-21T01:55:04;16.30;;;3.50;;
249;SDS011;109;19.806;-70.704;2022-11-21T01:57:47;15.23;;;3.60;;
249;SDS011;109;19.806;-70.704;2022-11-21T02:00:28;16.20;;;3.60;;
249;SDS011;109;19.806;-70.704;2022-11-21T02:03:09;19.93;;;3.87;;
249;SDS011;109;19.806;-70.704;2022-11-21T02:05:54;17.47;;;4.23;;
249;SDS011;109;19.806;-70.704;2022-11-21T02:08:21;21.70;;;4.20;;
249;SDS011;109;19.806;-70.704;2022-11-21T02:14:04;18.00;;;3.70;;
249;SDS011;109;19.806;-70.704;2022-11-21T02:16:44;18.40;;;4.00;;
249;SDS011;109;19.806;-70.704;2022-11-21T02:19:18;23.80;;;4.13;;
249;SDS011;109;19.806;-70.704;2022-11-21T02:25:33;18.10;;;3.50;;
249;SDS011;109;19.806;-70.704;2022-11-21T02:28:15;16.03;;;4.07;;
249;SDS011;109;19.806;-70.704;2022-11-21T02:30:58;15.13;;;3.10;;
249;SDS011;109;19.806;-70.704;2022-11-21T02:33:24;18.77;;;4.03;;
249;SDS011;109;19.806;-70.704;2022-11-21T02:36:26;13.93;;;4.43;;
249;SDS011;109;19.806;-70.704;2022-11-21T02:39:18;15.93;;;4.10;;
249;SDS011;109;19.806;-70.704;2022-11-21T02:44:33;19.27;;;3.40;;
249;SDS011;109;19.806;-70.704;2022-11-21T02:47:31;17.00;;;3.70;;
249;SDS011;109;19.806;-70.704;2022-11-21T02:50:09;16.10;;;3.63;;
249;SDS011;109;19.806;-70.704;2022-11-21T02:52:53;12.20;;;3.90;;
249;SDS011;109;19.806;-70.704;2022-11-21T02:55:33;15.93;;;3.37;;
249;SDS011;109;19.806;-70.704;2022-11-21T02:58:00;13.13;;;3.50;;
249;SDS011;109;19.806;-70.704;2022-11-21T03:00:41;15.70;;;3.90;;
249;SDS011;109;19.806;-70.704;2022-11-21T03:03:08;17.50;;;4.07;;
249;SDS011;109;19.806;-70.704;2022-11-21T03:05:48;17.70;;;4.03;;
249;SDS011;109;19.806;-70.704;2022-11-21T03:08:15;23.03;;;3.73;;
249;SDS011;109;19.806;-70.704;2022-11-21T03:10:54;10.20;;;4.00;;
249;SDS011;109;19.806;-70.704;2022-11-21T03:13:20;19.70;;;5.00;;
249;SDS011;109;19.806;-70.704;2022-11-21T03:16:01;19.40;;;3.80;;
249;SDS011;109;19.806;-70.704;2022-11-21T03:18:27;21.50;;;3.60;;
249;SDS011;109;19.806;-70.704;2022-11-21T03:21:07;18.00;;;4.60;;
249;SDS011;109;19.806;-70.704;2022-11-21T03:23:33;14.60;;;3.30;;
249;SDS011;109;19.806;-70.704;2022-11-21T03:26:13;17.73;;;3.90;;
249;SDS011;109;19.806;-70.704;2022-11-21T03:28:46;27.27;;;4.37;;
249;SDS011;109;19.806;-70.704;2022-11-21T03:31:27;17.80;;;3.60;;
249;SDS011;109;19.806;-70.704;2022-11-21T03:33:53;13.07;;;3.33;;
249;SDS011;109;19.806;-70.704;2022-11-21T03:36:33;18.67;;;4.07;;
249;SDS011;109;19.806;-70.704;2022-11-21T03:39:00;17.80;;;4.03;;
249;SDS011;109;19.806;-70.704;2022-11-21T03:41:39;14.13;;;3.63;;
249;SDS011;109;19.806;-70.704;2022-11-21T03:44:07;19.70;;;4.07;;
249;SDS011;109;19.806;-70.704;2022-11-21T03:46:55;10.63;;;3.63;;
249;SDS011;109;19.806;-70.704;2022-11-21T03:49:35;18.17;;;4.37;;
249;SDS011;109;19.806;-70.704;2022-11-21T03:52:15;19.90;;;4.37;;
249;SDS011;109;19.806;-70.704;2022-11-21T03:54:41;16.33;;;3.90;;
249;SDS011;109;19.806;-70.704;2022-11-21T03:57:21;12.30;;;3.73;;
249;SDS011;109;19.806;-70.704;2022-11-21T03:59:47;16.17;;;3.53;;
249;SDS011;109;19.806;-70.704;2022-11-21T04:02:30;18.63;;;3.60;;
249;SDS011;109;19.806;-70.704;2022-11-21T04:04:56;14.93;;;4.37;;
249;SDS011;109;19.806;-70.704;2022-11-21T04:07:36;16.10;;;4.10;;
249;SDS011;109;19.806;-70.704;2022-11-21T04:10:16;17.97;;;3.67;;
249;SDS011;109;19.806;-70.704;2022-11-21T04:12:42;19.77;;;3.70;;
249;SDS011;109;19.806;-70.704;2022-11-21T04:15:22;15.53;;;3.90;;
249;SDS011;109;19.806;-70.704;2022-11-21T04:17:56;18.10;;;3.90;;
249;SDS011;109;19.806;-70.704;2022-11-21T04:20:36;13.60;;;3.80;;
249;SDS011;109;19.806;-70.704;2022-11-21T04:23:03;11.13;;;3.10;;
249;SDS011;109;19.806;-70.704;2022-11-21T04:25:43;17.60;;;3.67;;
249;SDS011;109;19.806;-70.704;2022-11-21T04:28:10;21.03;;;4.27;;
249;SDS011;109;19.806;-70.704;2022-11-21T04:30:50;12.90;;;3.00;;
249;SDS011;109;19.806;-70.704;2022-11-21T04:33:17;16.47;;;4.27;;
249;SDS011;109;19.806;-70.704;2022-11-21T04:35:58;18.57;;;3.57;;
249;SDS011;109;19.806;-70.704;2022-11-21T04:38:25;9.87;;;3.00;;
249;SDS011;109;19.806;-70.704;2022-11-21T04:41:04;20.53;;;3.40;;
249;SDS011;109;19.806;-70.704;2022-11-21T04:43:30;19.40;;;3.73;;
249;SDS011;109;19.806;-70.704;2022-11-21T04:46:16;26.03;;;4.60;;
249;SDS011;109;19.806;-70.704;2022-11-21T04:48:56;20.43;;;4.07;;
249;SDS011;109;19.806;-70.704;2022-11-21T04:51:37;33.33;;;4.33;;
249;SDS011;109;19.806;-70.704;2022-11-21T04:54:03;21.13;;;4.53;;
249;SDS011;109;19.806;-70.704;2022-11-21T04:56:43;14.30;;;3.67;;
249;SDS011;109;19.806;-70.704;2022-11-21T04:59:09;9.43;;;3.00;;
249;SDS011;109;19.806;-70.704;2022-11-21T05:01:49;13.10;;;3.20;;
249;SDS011;109;19.806;-70.704;2022-11-21T05:04:15;14.13;;;3.60;;
249;SDS011;109;19.806;-70.704;2022-11-21T05:06:56;12.07;;;2.90;;
249;SDS011;109;19.806;-70.704;2022-11-21T05:09:30;20.93;;;3.77;;
249;SDS011;109;19.806;-70.704;2022-11-21T05:12:09;14.80;;;3.40;;
249;SDS011;109;19.806;-70.704;2022-11-21T05:15:00;12.50;;;2.90;;
249;SDS011;109;19.806;-70.704;2022-11-21T05:17:40;12.77;;;3.10;;
249;SDS011;109;19.806;-70.704;2022-11-21T05:20:20;13.80;;;3.10;;
249;SDS011;109;19.806;-70.704;2022-11-21T05:22:49;15.87;;;3.33;;
249;SDS011;109;19.806;-70.704;2022-11-21T05:25:31;15.70;;;3.50;;
249;SDS011;109;19.806;-70.704;2022-11-21T05:27:57;13.50;;;3.03;;
249;SDS011;109;19.806;-70.704;2022-11-21T05:30:37;10.33;;;2.77;;
249;SDS011;109;19.806;-70.704;2022-11-21T05:33:03;13.47;;;3.00;;
249;SDS011;109;19.806;-70.704;2022-11-21T05:35:43;13.90;;;2.80;;
249;SDS011;109;19.806;-70.704;2022-11-21T05:38:10;10.20;;;3.10;;
249;SDS011;109;19.806;-70.704;2022-11-21T05:40:50;12.70;;;3.30;;
249;SDS011;109;19.806;-70.704;2022-11-21T05:43:17;14.43;;;3.50;;
249;SDS011;109;19.806;-70.704;2022-11-21T05:46:23;15.10;;;3.23;;
249;SDS011;109;19.806;-70.704;2022-11-21T05:49:04;8.37;;;3.10;;
249;SDS011;109;19.806;-70.704;2022-11-21T05:51:44;19.53;;;4.20;;
249;SDS011;109;19.806;-70.704;2022-11-21T05:54:11;17.90;;;3.57;;
249;SDS011;109;19.806;-70.704;2022-11-21T05:56:52;12.87;;;2.70;;
249;SDS011;109;19.806;-70.704;2022-11-21T05:59:18;25.63;;;4.60;;
249;SDS011;109;19.806;-70.704;2022-11-21T06:01:58;24.53;;;4.10;;
249;SDS011;109;19.806;-70.704;2022-11-21T06:04:57;14.93;;;3.27;;
249;SDS011;109;19.806;-70.704;2022-11-21T06:07:36;13.73;;;3.67;;
249;SDS011;109;19.806;-70.704;2022-11-21T06:10:16;8.47;;;2.80;;
249;SDS011;109;19.806;-70.704;2022-11-21T06:12:42;12.93;;;2.80;;
249;SDS011;109;19.806;-70.704;2022-11-21T06:15:23;18.47;;;3.27;;
249;SDS011;109;19.806;-70.704;2022-11-21T06:17:49;8.93;;;2.37;;
249;SDS011;109;19.806;-70.704;2022-11-21T06:20:29;6.80;;;2.73;;
249;SDS011;109;19.806;-70.704;2022-11-21T06:22:55;7.90;;;2.83;;
249;SDS011;109;19.806;-70.704;2022-11-21T06:25:35;12.67;;;2.50;;
249;SDS011;109;19.806;-70.704;2022-11-21T06:28:01;16.47;;;3.23;;
249;SDS011;109;19.806;-70.704;2022-11-21T06:30:42;13.37;;;3.00;;
249;SDS011;109;19.806;-70.704;2022-11-21T06:33:09;7.83;;;2.50;;
249;SDS011;109;19.806;-70.704;2022-11-21T06:35:49;12.67;;;3.20;;
249;SDS011;109;19.806;-70.704;2022-11-21T06:38:15;19.57;;;3.00;;
249;SDS011;109;19.806;-70.704;2022-11-21T06:40:55;8.93;;;2.83;;
249;SDS011;109;19.806;-70.704;2022-11-21T06:43:21;12.10;;;2.80;;
249;SDS011;109;19.806;-70.704;2022-11-21T06:46:09;15.03;;;3.17;;
249;SDS011;109;19.806;-70.704;2022-11-21T06:48:48;16.23;;;3.80;;
249;SDS011;109;19.806;-70.704;2022-11-21T06:51:28;17.13;;;3.43;;
249;SDS011;109;19.806;-70.704;2022-11-21T06:53:55;13.30;;;3.70;;
249;SDS011;109;19.806;-70.704;2022-11-21T06:56:36;12.57;;;3.30;;
249;SDS011;109;19.806;-70.704;2022-11-21T06:59:09;10.27;;;2.93;;
249;SDS011;109;19.806;-70.704;2022-11-21T07:01:50;12.03;;;2.83;;
249;SDS011;109;19.806;-70.704;2022-11-21T07:04:17;12.87;;;2.90;;
249;SDS011;109;19.806;-70.704;2022-11-21T07:06:57;10.53;;;2.97;;
249;SDS011;109;19.806;-70.704;2022-11-21T07:09:24;11.03;;;2.50;;
249;SDS011;109;19.806;-70.704;2022-11-21T07:12:05;9.37;;;2.40;;
249;SDS011;109;19.806;-70.704;2022-11-21T07:14:56;17.03;;;3.10;;
249;SDS011;109;19.806;-70.704;2022-11-21T07:17:37;5.50;;;2.57;;
249;SDS011;109;19.806;-70.704;2022-11-21T07:20:03;17.10;;;3.00;;
249;SDS011;109;19.806;-70.704;2022-11-21T07:22:44;11.33;;;2.87;;
249;SDS011;109;19.806;-70.704;2022-11-21T07:25:24;12.07;;;2.77;;
249;SDS011;109;19.806;-70.704;2022-11-21T07:27:50;13.00;;;3.00;;
249;SDS011;109;19.806;-70.704;2022-11-21T07:30:30;9.13;;;2.57;;
249;SDS011;109;19.806;-70.704;2022-11-21T07:33:04;13.50;;;2.70;;
249;SDS011;109;19.806;-70.704;2022-11-21T07:35:46;10.30;;;2.40;;
249;SDS011;109;19.806;-70.704;2022-11-21T07:38:12;13.07;;;2.70;;
249;SDS011;109;19.806;-70.704;2022-11-21T07:41:00;14.53;;;2.90;;
249;SDS011;109;19.806;-70.704;2022-11-21T07:43:33;9.67;;;2.70;;
249;SDS011;109;19.806;-70.704;2022-11-21T07:46:20;14.73;;;2.53;;
249;SDS011;109;19.806;-70.704;2022-11-21T07:48:59;12.17;;;2.87;;
249;SDS011;109;19.806;-70.704;2022-11-21T07:51:40;10.73;;;2.67;;
249;SDS011;109;19.806;-70.704;2022-11-21T07:54:06;8.57;;;2.70;;
249;SDS011;109;19.806;-70.704;2022-11-21T07:56:46;10.10;;;2.50;;
249;SDS011;109;19.806;-70.704;2022-11-21T07:59:12;7.33;;;2.30;;
249;SDS011;109;19.806;-70.704;2022-11-21T08:01:52;10.67;;;2.50;;
249;SDS011;109;19.806;-70.704;2022-11-21T08:04:18;10.67;;;2.77;;
249;SDS011;109;19.806;-70.704;2022-11-21T08:06:59;17.50;;;3.30;;
249;SDS011;109;19.806;-70.704;2022-11-21T08:09:28;14.93;;;2.30;;
249;SDS011;109;19.806;-70.704;2022-11-21T08:12:08;10.23;;;2.50;;
249;SDS011;109;19.806;-70.704;2022-11-21T08:14:35;12.10;;;2.40;;
249;SDS011;109;19.806;-70.704;2022-11-21T08:17:15;9.87;;;3.90;;
249;SDS011;109;19.806;-70.704;2022-11-21T08:19:42;15.43;;;3.60;;
249;SDS011;109;19.806;-70.704;2022-11-21T08:22:31;13.37;;;3.97;;
249;SDS011;109;19.806;-70.704;2022-11-21T08:25:04;12.20;;;2.67;;
249;SDS011;109;19.806;-70.704;2022-11-21T08:27:45;11.07;;;2.40;;
249;SDS011;109;19.806;-70.704;2022-11-21T08:30:26;16.80;;;3.60;;
249;SDS011;109;19.806;-70.704;2022-11-21T08:32:53;16.23;;;2.80;;
249;SDS011;109;19.806;-70.704;2022-11-21T08:35:34;10.33;;;2.60;;
249;SDS011;109;19.806;-70.704;2022-11-21T08:38:13;13.30;;;3.20;;
249;SDS011;109;19.806;-70.704;2022-11-21T08:40:54;11.07;;;2.70;;
249;SDS011;109;19.806;-70.704;2022-11-21T08:43:45;6.90;;;2.23;;
249;SDS011;109;19.806;-70.704;2022-11-21T08:46:34;13.23;;;3.00;;
249;SDS011;109;19.806;-70.704;2022-11-21T08:49:14;14.80;;;3.30;;
249;SDS011;109;19.806;-70.704;2022-11-21T08:52:02;9.93;;;2.70;;
249;SDS011;109;19.806;-70.704;2022-11-21T08:54:35;18.13;;;3.50;;
249;SDS011;109;19.806;-70.704;2022-11-21T08:57:16;21.33;;;3.63;;
249;SDS011;109;19.806;-70.704;2022-11-21T08:59:42;11.43;;;2.93;;
249;SDS011;109;19.806;-70.704;2022-11-21T09:02:22;16.47;;;3.13;;
249;SDS011;109;19.806;-70.704;2022-11-21T09:04:49;16.00;;;3.73;;
249;SDS011;109;19.806;-70.704;2022-11-21T09:07:30;15.00;;;3.53;;
249;SDS011;109;19.806;-70.704;2022-11-21T09:09:57;11.53;;;3.80;;
249;SDS011;109;19.806;-70.704;2022-11-21T09:12:37;14.00;;;3.67;;
249;SDS011;109;19.806;-70.704;2022-11-21T09:15:17;26.00;;;5.20;;
249;SDS011;109;19.806;-70.704;2022-11-21T09:18:09;19.07;;;4.20;;
249;SDS011;109;19.806;-70.704;2022-11-21T09:20:49;19.20;;;3.80;;
249;SDS011;109;19.806;-70.704;2022-11-21T09:23:16;11.23;;;3.60;;
249;SDS011;109;19.806;-70.704;2022-11-21T09:25:55;16.30;;;3.67;;
249;SDS011;109;19.806;-70.704;2022-11-21T09:28:21;13.30;;;2.90;;
249;SDS011;109;19.806;-70.704;2022-11-21T09:31:02;15.30;;;3.17;;
249;SDS011;109;19.806;-70.704;2022-11-21T09:33:29;22.10;;;4.83;;
249;SDS011;109;19.806;-70.704;2022-11-21T09:36:10;11.83;;;3.10;;
249;SDS011;109;19.806;-70.704;2022-11-21T09:38:37;19.27;;;3.40;;
249;SDS011;109;19.806;-70.704;2022-11-21T09:41:29;17.20;;;3.20;;
249;SDS011;109;19.806;-70.704;2022-11-21T09:47:46;14.57;;;3.27;;
249;SDS011;109;19.806;-70.704;2022-11-21T09:58:38;26.70;;;4.40;;
249;SDS011;109;19.806;-70.704;2022-11-21T10:01:24;19.77;;;3.53;;
249;SDS011;109;19.806;-70.704;2022-11-21T10:03:53;10.50;;;3.00;;
249;SDS011;109;19.806;-70.704;2022-11-21T10:16:08;24.10;;;3.90;;
249;SDS011;109;19.806;-70.704;2022-11-21T10:19:02;31.00;;;5.03;;
249;SDS011;109;19.806;-70.704;2022-11-21T10:22:19;29.67;;;4.20;;
249;SDS011;109;19.806;-70.704;2022-11-21T10:31:10;16.93;;;3.83;;
249;SDS011;109;19.806;-70.704;2022-11-21T10:33:52;17.40;;;3.83;;
249;SDS011;109;19.806;-70.704;2022-11-21T10:36:38;11.80;;;4.57;;
249;SDS011;109;19.806;-70.704;2022-11-21T10:39:17;14.23;;;4.70;;
249;SDS011;109;19.806;-70.704;2022-11-21T10:42:10;13.13;;;5.10;;
249;SDS011;109;19.806;-70.704;2022-11-21T10:45:13;21.23;;;5.90;;
249;SDS011;109;19.806;-70.704;2022-11-21T10:47:51;15.80;;;6.77;;
249;SDS011;109;19.806;-70.704;2022-11-21T10:50:28;15.47;;;9.03;;
249;SDS011;109;19.806;-70.704;2022-11-21T10:58:57;11.33;;;5.03;;
249;SDS011;109;19.806;-70.704;2022-11-21T11:01:28;15.23;;;5.37;;
249;SDS011;109;19.806;-70.704;2022-11-21T11:06:39;17.80;;;4.97;;
249;SDS011;109;19.806;-70.704;2022-11-21T11:09:30;10.60;;;4.17;;
249;SDS011;109;19.806;-70.704;2022-11-21T11:12:32;10.33;;;3.67;;
249;SDS011;109;19.806;-70.704;2022-11-21T11:15:22;11.27;;;4.40;;
249;SDS011;109;19.806;-70.704;2022-11-21T11:17:51;10.70;;;4.63;;
249;SDS011;109;19.806;-70.704;2022-11-21T11:22:56;14.50;;;4.30;;
249;SDS011;109;19.806;-70.704;2022-11-21T11:25:23;14.40;;;4.30;;
249;SDS011;109;19.806;-70.704;2022-11-21T11:27:50;13.40;;;4.50;;
249;SDS011;109;19.806;-70.704;2022-11-21T11:30:17;27.40;;;5.00;;
249;SDS011;109;19.806;-70.704;2022-11-21T11:32:45;23.77;;;5.33;;
249;SDS011;109;19.806;-70.704;2022-11-21T11:42:57;22.80;;;5.07;;
249;SDS011;109;19.806;-70.704;2022-11-21T11:49:03;14.07;;;5.00;;
249;SDS011;109;19.806;-70.704;2022-11-21T11:51:41;19.60;;;5.60;;
249;SDS011;109;19.806;-70.704;2022-11-21T11:54:19;30.57;;;6.47;;
249;SDS011;109;19.806;-70.704;2022-11-21T11:56:49;24.53;;;6.20;;
249;SDS011;109;19.806;-70.704;2022-11-21T12:02:21;43.03;;;6.80;;
249;SDS011;109;19.806;-70.704;2022-11-21T12:04:52;27.87;;;5.67;;
249;SDS011;109;19.806;-70.704;2022-11-21T12:07:21;20.23;;;5.33;;
249;SDS011;109;19.806;-70.704;2022-11-21T12:12:27;27.10;;;6.00;;
249;SDS011;109;19.806;-70.704;2022-11-21T12:18:39;25.07;;;5.17;;
249;SDS011;109;19.806;-70.704;2022-11-21T12:21:19;20.20;;;5.20;;
249;SDS011;109;19.806;-70.704;2022-11-21T12:26:35;33.37;;;5.47;;
249;SDS011;109;19.806;-70.704;2022-11-21T12:34:43;19.67;;;3.77;;
249;SDS011;109;19.806;-70.704;2022-11-21T12:39:59;17.73;;;3.83;;
249;SDS011;109;19.806;-70.704;2022-11-21T12:57:32;23.47;;;4.97;;
249;SDS011;109;19.806;-70.704;2022-11-21T13:00:05;17.23;;;3.53;;
249;SDS011;109;19.806;-70.704;2022-11-21T13:05:44;41.03;;;5.87;;
249;SDS011;109;19.806;-70.704;2022-11-21T13:08:14;18.13;;;3.83;;
249;SDS011;109;19.806;-70.704;2022-11-21T13:11:02;16.87;;;4.27;;
249;SDS011;109;19.806;-70.704;2022-11-21T13:14:01;11.57;;;3.70;;
249;SDS011;109;19.806;-70.704;2022-11-21T13:16:36;14.70;;;4.50;;
249;SDS011;109;19.806;-70.704;2022-11-21T13:19:33;15.33;;;4.37;;
249;SDS011;109;19.806;-70.704;2022-11-21T13:27:42;17.77;;;3.43;;
249;SDS011;109;19.806;-70.704;2022-11-21T13:32:40;16.57;;;3.93;;
249;SDS011;109;19.806;-70.704;2022-11-21T13:51:45;44.63;;;5.60;;
249;SDS011;109;19.806;-70.704;2022-11-21T13:59:29;14.30;;;5.60;;
249;SDS011;109;19.806;-70.704;2022-11-21T14:10:50;20.70;;;12.80;;
249;SDS011;109;19.806;-70.704;2022-11-21T14:13:20;17.30;;;12.33;;
249;SDS011;109;19.806;-70.704;2022-11-21T14:19:05;17.57;;;5.27;;
249;SDS011;109;19.806;-70.704;2022-11-21T14:21:46;17.13;;;9.67;;
249;SDS011;109;19.806;-70.704;2022-11-21T14:24:17;17.47;;;4.50;;
249;SDS011;109;19.806;-70.704;2022-11-21T14:26:45;20.67;;;13.57;;
249;SDS011;109;19.806;-70.704;2022-11-21T14:29:59;15.00;;;7.70;;
249;SDS011;109;19.806;-70.704;2022-11-21T14:32:11;19.43;;;9.17;;
249;SDS011;109;19.806;-70.704;2022-11-21T14:34:39;26.80;;;17.40;;
249;SDS011;109;19.806;-70.704;2022-11-21T14:37:05;27.47;;;24.27;;
249;SDS011;109;19.806;-70.704;2022-11-21T14:39:33;20.00;;;12.90;;
249;SDS011;109;19.806;-70.704;2022-11-21T14:42:04;11.83;;;5.43;;
249;SDS011;109;19.806;-70.704;2022-11-21T14:44:38;14.47;;;4.77;;
249;SDS011;109;19.806;-70.704;2022-11-21T14:47:14;14.70;;;4.90;;
249;SDS011;109;19.806;-70.704;2022-11-21T14:49:48;19.23;;;4.07;;
249;SDS011;109;19.806;-70.704;2022-11-21T14:52:17;10.73;;;3.80;;
249;SDS011;109;19.806;-70.704;2022-11-21T14:54:53;19.10;;;5.93;;
249;SDS011;109;19.806;-70.704;2022-11-21T14:57:31;9.83;;;3.50;;
249;SDS011;109;19.806;-70.704;2022-11-21T15:00:01;12.03;;;4.60;;
249;SDS011;109;19.806;-70.704;2022-11-21T15:02:31;7.70;;;3.30;;
249;SDS011;109;19.806;-70.704;2022-11-21T15:05:00;10.10;;;3.70;;
249;SDS011;109;19.806;-70.704;2022-11-21T15:07:33;18.43;;;4.73;;
249;SDS011;109;19.806;-70.704;2022-11-21T15:10:05;12.60;;;4.50;;
249;SDS011;109;19.806;-70.704;2022-11-21T15:17:57;15.50;;;3.80;;
249;SDS011;109;19.806;-70.704;2022-11-21T15:20:28;11.80;;;3.20;;
249;SDS011;109;19.806;-70.704;2022-11-21T15:22:57;13.07;;;3.70;;
249;SDS011;109;19.806;-70.704;2022-11-21T15:25:25;11.23;;;3.90;;
249;SDS011;109;19.806;-70.704;2022-11-21T15:30:28;11.50;;;3.53;;
249;SDS011;109;19.806;-70.704;2022-11-21T15:46:00;14.50;;;3.70;;
249;SDS011;109;19.806;-70.704;2022-11-21T15:48:27;14.10;;;3.40;;
249;SDS011;109;19.806;-70.704;2022-11-21T15:50:57;26.27;;;3.93;;
249;SDS011;109;19.806;-70.704;2022-11-21T15:53:23;16.27;;;4.23;;
249;SDS011;109;19.806;-70.704;2022-11-21T15:55:49;11.23;;;3.70;;
249;SDS011;109;19.806;-70.704;2022-11-21T15:58:16;17.27;;;3.60;;
249;SDS011;109;19.806;-70.704;2022-11-21T16:00:43;16.87;;;3.70;;
249;SDS011;109;19.806;-70.704;2022-11-21T16:03:09;14.93;;;3.90;;
249;SDS011;109;19.806;-70.704;2022-11-21T16:05:35;10.57;;;3.80;;
249;SDS011;109;19.806;-70.704;2022-11-21T16:08:03;21.30;;;3.80;;
249;SDS011;109;19.806;-70.704;2022-11-21T16:10:30;23.53;;;3.70;;
249;SDS011;109;19.806;-70.704;2022-11-21T16:12:57;16.67;;;3.87;;
249;SDS011;109;19.806;-70.704;2022-11-21T16:15:23;14.53;;;3.87;;
249;SDS011;109;19.806;-70.704;2022-11-21T16:17:50;15.53;;;3.53;;
249;SDS011;109;19.806;-70.704;2022-11-21T16:20:17;33.53;;;6.83;;
249;SDS011;109;19.806;-70.704;2022-11-21T16:22:43;55.77;;;7.43;;
249;SDS011;109;19.806;-70.704;2022-11-21T16:25:09;35.17;;;6.87;;
249;SDS011;109;19.806;-70.704;2022-11-21T16:27:36;51.63;;;5.80;;
249;SDS011;109;19.806;-70.704;2022-11-21T16:30:02;30.00;;;4.47;;
249;SDS011;109;19.806;-70.704;2022-11-21T16:32:29;22.07;;;4.17;;
249;SDS011;109;19.806;-70.704;2022-11-21T16:34:56;24.83;;;4.07;;
249;SDS011;109;19.806;-70.704;2022-11-21T16:37:23;20.43;;;3.70;;
249;SDS011;109;19.806;-70.704;2022-11-21T16:39:49;23.60;;;4.40;;
249;SDS011;109;19.806;-70.704;2022-11-21T16:42:18;21.07;;;3.53;;
249;SDS011;109;19.806;-70.704;2022-11-21T16:44:45;27.70;;;5.10;;
249;SDS011;109;19.806;-70.704;2022-11-21T16:47:14;21.13;;;6.00;;
249;SDS011;109;19.806;-70.704;2022-11-21T16:49:41;23.77;;;5.20;;
249;SDS011;109;19.806;-70.704;2022-11-21T16:52:11;23.27;;;4.20;;
249;SDS011;109;19.806;-70.704;2022-11-21T16:54:38;17.53;;;4.20;;
249;SDS011;109;19.806;-70.704;2022-11-21T16:57:05;15.50;;;3.63;;
249;SDS011;109;19.806;-70.704;2022-11-21T16:59:31;19.73;;;4.33;;
249;SDS011;109;19.806;-70.704;2022-11-21T17:01:58;24.40;;;4.30;;
249;SDS011;109;19.806;-70.704;2022-11-21T17:04:24;16.43;;;3.87;;
249;SDS011;109;19.806;-70.704;2022-11-21T17:06:51;23.83;;;4.10;;
249;SDS011;109;19.806;-70.704;2022-11-21T17:09:17;23.03;;;4.03;;
249;SDS011;109;19.806;-70.704;2022-11-21T17:11:44;23.43;;;3.90;;
249;SDS011;109;19.806;-70.704;2022-11-21T17:14:11;25.03;;;4.00;;
249;SDS011;109;19.806;-70.704;2022-11-21T17:16:37;33.90;;;5.10;;
249;SDS011;109;19.806;-70.704;2022-11-21T17:19:06;31.87;;;3.87;;
249;SDS011;109;19.806;-70.704;2022-11-21T17:21:35;18.57;;;4.90;;
249;SDS011;109;19.806;-70.704;2022-11-21T17:24:02;100.27;;;13.53;;
249;SDS011;109;19.806;-70.704;2022-11-21T17:26:28;92.33;;;11.50;;
249;SDS011;109;19.806;-70.704;2022-11-21T17:28:56;79.10;;;8.50;;
249;SDS011;109;19.806;-70.704;2022-11-21T17:31:28;39.60;;;5.20;;
249;SDS011;109;19.806;-70.704;2022-11-21T17:33:55;27.50;;;5.17;;
249;SDS011;109;19.806;-70.704;2022-11-21T17:36:23;26.40;;;4.53;;
249;SDS011;109;19.806;-70.704;2022-11-21T17:38:51;15.50;;;4.27;;
249;SDS011;109;19.806;-70.704;2022-11-21T17:41:20;17.93;;;4.30;;
249;SDS011;109;19.806;-70.704;2022-11-21T17:43:47;25.97;;;4.73;;
249;SDS011;109;19.806;-70.704;2022-11-21T17:46:15;16.10;;;4.30;;
249;SDS011;109;19.806;-70.704;2022-11-21T17:48:43;16.00;;;4.60;;
249;SDS011;109;19.806;-70.704;2022-11-21T17:51:15;12.07;;;4.03;;
249;SDS011;109;19.806;-70.704;2022-11-21T17:53:43;14.40;;;4.07;;
249;SDS011;109;19.806;-70.704;2022-11-21T17:56:15;13.17;;;3.87;;
249;SDS011;109;19.806;-70.704;2022-11-21T17:58:47;19.73;;;4.00;;
249;SDS011;109;19.806;-70.704;2022-11-21T18:01:14;19.57;;;4.00;;
249;SDS011;109;19.806;-70.704;2022-11-21T18:03:45;14.67;;;3.63;;
249;SDS011;109;19.806;-70.704;2022-11-21T18:06:13;16.50;;;3.27;;
249;SDS011;109;19.806;-70.704;2022-11-21T18:08:42;20.07;;;4.53;;
249;SDS011;109;19.806;-70.704;2022-11-21T18:11:11;17.93;;;3.60;;
249;SDS011;109;19.806;-70.704;2022-11-21T18:13:39;17.83;;;3.70;;
249;SDS011;109;19.806;-70.704;2022-11-21T18:16:10;21.40;;;4.47;;
249;SDS011;109;19.806;-70.704;2022-11-21T18:18:38;22.47;;;4.60;;
249;SDS011;109;19.806;-70.704;2022-11-21T18:21:15;27.33;;;4.50;;
249;SDS011;109;19.806;-70.704;2022-11-21T18:23:43;16.70;;;4.13;;
249;SDS011;109;19.806;-70.704;2022-11-21T18:26:11;18.50;;;3.77;;